Time,TemperatureF,DewpointF,PressureIn,WindDirection,WindDirectionDegrees,WindSpeedMPH,WindSpeedGustMPH,Humidity,HourlyPrecipIn,Conditions,Clouds,dailyrainin,SoftwareType,DateUTC
2013-04-15 00:09:00,47.9,24.1,29.50,NNE,12,2.0,2.0,39,0.00,,,0.00,Wunderground v.1.15,2013-04-15 06:09:00,
2013-04-15 00:19:00,48.4,24.6,29.50,NNW,333,1.0,1.0,39,0.00,,,0.00,Wunderground v.1.15,2013-04-15 06:19:00,
2013-04-15 00:24:00,47.9,24.7,29.50,NNW,332,1.0,1.0,40,0.00,,,0.00,Wunderground v.1.15,2013-04-15 06:24:00,
2013-04-15 00:29:00,48.5,23.4,29.50,NNW,344,3.0,5.0,37,0.00,,,0.00,Wunderground v.1.15,2013-04-15 06:29:00,
2013-04-15 00:39:00,49.1,23.3,29.50,NNE,16,3.0,3.0,36,0.00,,,0.00,Wunderground v.1.15,2013-04-15 06:39:00,
2013-04-15 00:44:00,49.0,23.2,29.50,NNW,333,2.0,3.0,36,0.00,,,0.00,Wunderground v.1.15,2013-04-15 06:44:00,
2013-04-15 00:49:00,48.5,23.4,29.50,NNW,331,1.0,8.0,37,0.00,,,0.00,Wunderground v.1.15,2013-04-15 06:49:00,
2013-04-15 00:54:00,47.6,24.4,29.51,SW,225,1.0,8.0,40,0.00,,,0.00,Wunderground v.1.15,2013-04-15 06:54:00,
2013-04-15 00:59:00,47.9,23.5,29.50,NE,53,1.0,4.0,38,0.00,,,0.00,Wunderground v.1.15,2013-04-15 06:59:00,
2013-04-15 01:44:00,44.0,25.0,29.52,SW,218,0.0,0.0,47,0.00,,,0.00,Wunderground v.1.15,2013-04-15 07:44:00,
2013-04-15 01:49:00,42.6,24.3,29.53,South,182,0.0,0.0,48,0.00,,,0.00,Wunderground v.1.15,2013-04-15 07:49:00,
2013-04-15 01:54:00,41.8,25.0,29.53,SSW,205,0.0,0.0,51,0.00,,,0.00,Wunderground v.1.15,2013-04-15 07:54:00,
2013-04-15 01:59:00,40.8,25.9,29.53,SSE,159,0.0,0.0,55,0.00,,,0.00,Wunderground v.1.15,2013-04-15 07:59:00,
2013-04-15 02:09:00,41.9,24.6,29.52,SSW,192,1.0,1.0,50,0.00,,,0.00,Wunderground v.1.15,2013-04-15 08:09:00,
2013-04-15 02:14:00,41.0,25.2,29.52,ESE,111,1.0,2.0,53,0.00,,,0.00,Wunderground v.1.15,2013-04-15 08:14:00,
2013-04-15 02:19:00,40.6,25.2,29.52,ESE,119,1.0,1.0,54,0.00,,,0.00,Wunderground v.1.15,2013-04-15 08:19:00,
2013-04-15 02:29:00,39.3,25.3,29.52,SSW,197,0.0,0.0,57,0.00,,,0.00,Wunderground v.1.15,2013-04-15 08:29:00,
2013-04-15 02:44:00,40.0,25.1,29.52,SW,224,1.0,1.0,55,0.00,,,0.00,Wunderground v.1.15,2013-04-15 08:44:00,
2013-04-15 02:49:00,39.6,25.2,29.51,SSW,213,0.0,0.0,56,0.00,,,0.00,Wunderground v.1.15,2013-04-15 08:49:00,
2013-04-15 02:54:00,40.5,25.6,29.51,East,82,1.0,1.0,55,0.00,,,0.00,Wunderground v.1.15,2013-04-15 08:54:00,
2013-04-15 02:59:00,39.8,25.4,29.51,South,175,1.0,1.0,56,0.00,,,0.00,Wunderground v.1.15,2013-04-15 08:59:00,
2013-04-15 03:04:00,39.3,25.7,29.52,East,90,0.0,1.0,58,0.00,,,0.00,Wunderground v.1.15,2013-04-15 09:04:00,
2013-04-15 03:09:00,38.8,26.1,29.52,East,90,0.0,0.0,60,0.00,,,0.00,Wunderground v.1.15,2013-04-15 09:09:00,
2013-04-15 03:14:00,38.1,25.4,29.52,SSW,192,0.0,0.0,60,0.00,,,0.00,Wunderground v.1.15,2013-04-15 09:14:00,
2013-04-15 03:19:00,37.9,25.6,29.52,SE,144,0.0,0.0,61,0.00,,,0.00,Wunderground v.1.15,2013-04-15 09:19:00,
2013-04-15 03:24:00,37.7,25.1,29.52,SSW,208,0.0,0.0,60,0.00,,,0.00,Wunderground v.1.15,2013-04-15 09:24:00,
2013-04-15 03:34:00,37.9,25.2,29.52,South,180,1.0,1.0,60,0.00,,,0.00,Wunderground v.1.15,2013-04-15 09:34:00,
2013-04-15 03:39:00,37.6,25.0,29.52,SW,233,0.0,0.0,60,0.00,,,0.00,Wunderground v.1.15,2013-04-15 09:39:00,
2013-04-15 03:44:00,37.2,25.4,29.52,SW,233,0.0,0.0,62,0.00,,,0.00,Wunderground v.1.15,2013-04-15 09:44:00,
2013-04-15 03:54:00,37.7,24.6,29.52,ENE,68,0.0,0.0,59,0.00,,,0.00,Wunderground v.1.15,2013-04-15 09:54:00,
2013-04-15 03:59:00,38.1,25.0,29.52,North,355,0.0,0.0,59,0.00,,,0.00,Wunderground v.1.15,2013-04-15 09:59:00,
2013-04-15 04:09:00,39.4,24.1,29.52,NNW,329,0.0,0.0,54,0.00,,,0.00,Wunderground v.1.15,2013-04-15 10:09:00,
2013-04-15 04:14:00,40.7,24.4,29.53,NNW,327,1.0,1.0,52,0.00,,,0.00,Wunderground v.1.15,2013-04-15 10:14:00,
2013-04-15 04:19:00,41.7,23.9,29.52,NNW,337,1.0,3.0,49,0.00,,,0.00,Wunderground v.1.15,2013-04-15 10:19:00,
2013-04-15 04:24:00,42.8,23.4,29.53,NW,323,1.0,8.0,46,0.00,,,0.00,Wunderground v.1.15,2013-04-15 10:24:00,
2013-04-15 04:34:00,43.7,23.2,29.52,NE,45,2.0,3.0,44,0.00,,,0.00,Wunderground v.1.15,2013-04-15 10:34:00,
2013-04-15 04:39:00,43.7,22.6,29.53,NNW,348,1.0,1.0,43,0.00,,,0.00,Wunderground v.1.15,2013-04-15 10:39:00,
2013-04-15 04:44:00,43.5,23.0,29.53,North,9,1.0,1.0,44,0.00,,,0.00,Wunderground v.1.15,2013-04-15 10:44:00,
2013-04-15 04:49:00,43.5,22.5,29.52,NW,315,1.0,4.0,43,0.00,,,0.00,Wunderground v.1.15,2013-04-15 10:49:00,
2013-04-15 04:54:00,43.5,23.5,29.53,WNW,295,1.0,4.0,45,0.00,,,0.00,Wunderground v.1.15,2013-04-15 10:54:00,
2013-04-15 04:59:00,42.1,22.8,29.53,WSW,255,1.0,1.0,46,0.00,,,0.00,Wunderground v.1.15,2013-04-15 10:59:00,
2013-04-15 05:09:00,42.1,22.8,29.53,NNE,18,0.0,6.0,46,0.00,,,0.00,Wunderground v.1.15,2013-04-15 11:09:00,
2013-04-15 05:14:00,42.7,23.3,29.54,SW,220,1.0,6.0,46,0.00,,,0.00,Wunderground v.1.15,2013-04-15 11:14:00,
2013-04-15 05:19:00,42.5,22.1,29.53,NNE,20,2.0,2.0,44,0.00,,,0.00,Wunderground v.1.15,2013-04-15 11:19:00,
2013-04-15 05:29:00,41.0,23.8,29.53,WSW,245,0.0,0.0,50,0.00,,,0.00,Wunderground v.1.15,2013-04-15 11:29:00,
2013-04-15 05:34:00,41.1,22.9,29.53,NW,323,0.0,2.0,48,0.00,,,0.00,Wunderground v.1.15,2013-04-15 11:34:00,
2013-04-15 05:39:00,42.2,21.8,29.53,West,280,1.0,1.0,44,0.00,,,0.00,Wunderground v.1.15,2013-04-15 11:39:00,
2013-04-15 05:54:00,43.1,21.5,29.54,NW,324,1.0,6.0,42,0.00,,,0.00,Wunderground v.1.15,2013-04-15 11:54:00,
2013-04-15 05:59:00,42.8,21.8,29.54,WNW,284,2.0,2.0,43,0.00,,,0.00,Wunderground v.1.15,2013-04-15 11:59:00,
2013-04-15 06:09:00,42.2,21.8,29.54,NW,319,1.0,10.0,44,0.00,,,0.00,Wunderground v.1.15,2013-04-15 12:09:00,
2013-04-15 06:14:00,42.8,21.3,29.54,NE,55,3.0,10.0,42,0.00,,,0.00,Wunderground v.1.15,2013-04-15 12:14:00,
2013-04-15 06:19:00,43.2,22.2,29.54,NNE,14,2.0,3.0,43,0.00,,,0.00,Wunderground v.1.15,2013-04-15 12:19:00,
2013-04-15 06:24:00,43.3,21.7,29.55,NNW,333,1.0,4.0,42,0.00,,,0.00,Wunderground v.1.15,2013-04-15 12:24:00,
2013-04-15 06:29:00,43.4,21.8,29.55,NW,307,3.0,3.0,42,0.00,,,0.00,Wunderground v.1.15,2013-04-15 12:29:00,
2013-04-15 06:39:00,42.9,21.4,29.54,NNW,340,2.0,2.0,42,0.00,,,0.00,Wunderground v.1.15,2013-04-15 12:39:00,
2013-04-15 06:44:00,43.0,21.4,29.55,NW,322,2.0,2.0,42,0.00,,,0.00,Wunderground v.1.15,2013-04-15 12:44:00,
2013-04-15 06:49:00,43.0,21.4,29.55,NNW,327,2.0,2.0,42,0.00,,,0.00,Wunderground v.1.15,2013-04-15 12:49:00,
2013-04-15 06:54:00,42.6,21.6,29.55,North,5,2.0,2.0,43,0.00,,,0.00,Wunderground v.1.15,2013-04-15 12:54:00,
2013-04-15 06:59:00,42.8,21.3,29.55,North,355,1.0,1.0,42,0.00,,,0.00,Wunderground v.1.15,2013-04-15 12:59:00,
2013-04-15 07:09:00,41.7,22.4,29.55,WNW,296,1.0,1.0,46,0.00,,,0.00,Wunderground v.1.15,2013-04-15 13:09:00,
2013-04-15 07:14:00,41.7,22.4,29.56,WNW,284,0.0,1.0,46,0.00,,,0.00,Wunderground v.1.15,2013-04-15 13:14:00,
2013-04-15 07:19:00,41.1,22.4,29.55,WNW,303,0.0,0.0,47,0.00,,,0.00,Wunderground v.1.15,2013-04-15 13:19:00,
2013-04-15 07:29:00,40.1,22.4,29.55,North,360,1.0,1.0,49,0.00,,,0.00,Wunderground v.1.15,2013-04-15 13:29:00,
2013-04-15 07:39:00,41.4,21.6,29.55,NNW,327,1.0,3.0,45,0.00,,,0.00,Wunderground v.1.15,2013-04-15 13:39:00,
2013-04-15 07:49:00,42.9,21.9,29.56,NNW,335,2.0,2.0,43,0.00,,,0.00,Wunderground v.1.15,2013-04-15 13:49:00,
2013-04-15 07:54:00,43.3,21.7,29.56,WNW,288,3.0,3.0,42,0.00,,,0.00,Wunderground v.1.15,2013-04-15 13:54:00,
2013-04-15 07:59:00,43.7,21.5,29.55,NNW,327,4.0,12.0,41,0.00,,,0.00,Wunderground v.1.15,2013-04-15 13:59:00,
2013-04-15 08:09:00,43.8,22.2,29.56,North,355,3.0,3.0,42,0.00,,,0.00,Wunderground v.1.15,2013-04-15 14:09:00,
2013-04-15 08:14:00,43.8,21.6,29.55,NW,321,4.0,7.0,41,0.00,,,0.00,Wunderground v.1.15,2013-04-15 14:14:00,
2013-04-15 08:19:00,43.9,21.7,29.55,NE,41,6.0,6.0,41,0.00,,,0.00,Wunderground v.1.15,2013-04-15 14:19:00,
2013-04-15 08:24:00,44.2,22.0,29.55,NW,311,5.0,10.0,41,0.00,,,0.00,Wunderground v.1.15,2013-04-15 14:24:00,
2013-04-15 08:34:00,45.3,22.4,29.54,North,360,6.0,12.0,40,0.00,,,0.00,Wunderground v.1.15,2013-04-15 14:34:00,
2013-04-15 08:44:00,46.2,22.0,29.55,NNW,332,6.0,10.0,38,0.00,,,0.00,Wunderground v.1.15,2013-04-15 14:44:00,
2013-04-15 08:49:00,46.7,22.4,29.55,NW,319,5.0,7.0,38,0.00,,,0.00,Wunderground v.1.15,2013-04-15 14:49:00,
2013-04-15 08:54:00,47.2,22.2,29.54,NNE,30,4.0,7.0,37,0.00,,,0.00,Wunderground v.1.15,2013-04-15 14:54:00,
2013-04-15 08:59:00,47.3,21.7,29.55,NW,313,4.0,11.0,36,0.00,,,0.00,Wunderground v.1.15,2013-04-15 14:59:00,
2013-04-15 09:09:00,47.8,22.1,29.55,NW,325,7.0,14.0,36,0.00,,,0.00,Wunderground v.1.15,2013-04-15 15:09:00,
2013-04-15 09:14:00,48.0,21.6,29.54,SW,229,7.0,14.0,35,0.00,,,0.00,Wunderground v.1.15,2013-04-15 15:14:00,
2013-04-15 09:19:00,48.2,21.8,29.55,NNE,22,8.0,8.0,35,0.00,,,0.00,Wunderground v.1.15,2013-04-15 15:19:00,
2013-04-15 09:24:00,48.1,22.4,29.56,North,5,9.0,12.0,36,0.00,,,0.00,Wunderground v.1.15,2013-04-15 15:24:00,
2013-04-15 09:29:00,48.1,21.7,29.56,NNW,342,10.0,18.0,35,0.00,,,0.00,Wunderground v.1.15,2013-04-15 15:29:00,
2013-04-15 09:34:00,48.0,21.6,29.55,NNW,333,9.0,18.0,35,0.00,,,0.00,Wunderground v.1.15,2013-04-15 15:34:00,
2013-04-15 09:44:00,48.7,22.9,29.54,NW,313,8.0,8.0,36,0.00,,,0.00,Wunderground v.1.15,2013-04-15 15:44:00,
2013-04-15 09:49:00,48.9,22.4,29.55,NNW,329,8.0,9.0,35,0.00,,,0.00,Wunderground v.1.15,2013-04-15 15:49:00,
2013-04-15 09:54:00,49.1,22.6,29.55,NW,319,7.0,9.0,35,0.00,,,0.00,Wunderground v.1.15,2013-04-15 15:54:00,
2013-04-15 09:59:00,49.7,22.4,29.54,NNW,334,6.0,6.0,34,0.00,,,0.00,Wunderground v.1.15,2013-04-15 15:59:00,
2013-04-15 10:09:00,49.4,22.2,29.55,WNW,298,8.0,8.0,34,0.00,,,0.00,Wunderground v.1.15,2013-04-15 16:09:00,
2013-04-15 10:14:00,49.6,21.6,29.55,NNW,340,8.0,10.0,33,0.00,,,0.00,Wunderground v.1.15,2013-04-15 16:14:00,
2013-04-15 10:24:00,50.4,22.3,29.54,NW,316,5.0,6.0,33,0.00,,,0.00,Wunderground v.1.15,2013-04-15 16:24:00,
2013-04-15 10:29:00,50.4,22.3,29.54,West,281,7.0,15.0,33,0.00,,,0.00,Wunderground v.1.15,2013-04-15 16:29:00,
2013-04-15 10:39:00,50.3,22.3,29.54,North,5,7.0,7.0,33,0.00,,,0.00,Wunderground v.1.15,2013-04-15 16:39:00,
2013-04-15 10:49:00,51.0,22.1,29.53,NNW,333,7.0,16.0,32,0.00,,,0.00,Wunderground v.1.15,2013-04-15 16:49:00,
2013-04-15 10:54:00,51.0,21.4,29.53,NNW,330,7.0,16.0,31,0.00,,,0.00,Wunderground v.1.15,2013-04-15 16:54:00,
2013-04-15 10:59:00,51.3,22.4,29.53,NNE,24,6.0,6.0,32,0.00,,,0.00,Wunderground v.1.15,2013-04-15 16:59:00,
2013-04-15 11:09:00,51.3,21.6,29.52,NNW,339,6.0,6.0,31,0.00,,,0.00,Wunderground v.1.15,2013-04-15 17:09:00,
2013-04-15 11:14:00,51.4,21.7,29.52,NW,317,7.0,7.0,31,0.00,,,0.00,Wunderground v.1.15,2013-04-15 17:14:00,
2013-04-15 11:24:00,51.9,21.4,29.51,NNW,327,8.0,9.0,30,0.00,,,0.00,Wunderground v.1.15,2013-04-15 17:24:00,
2013-04-15 11:29:00,52.1,22.3,29.51,NNW,343,8.0,8.0,31,0.00,,,0.00,Wunderground v.1.15,2013-04-15 17:29:00,
2013-04-15 11:34:00,52.5,21.9,29.51,NW,323,7.0,8.0,30,0.00,,,0.00,Wunderground v.1.15,2013-04-15 17:34:00,
2013-04-15 11:39:00,53.2,22.5,29.51,SSW,198,6.0,6.0,30,0.00,,,0.00,Wunderground v.1.15,2013-04-15 17:39:00,
2013-04-15 11:49:00,53.0,22.4,29.51,ENE,59,5.0,5.0,30,0.00,,,0.00,Wunderground v.1.15,2013-04-15 17:49:00,
2013-04-15 11:54:00,53.8,22.2,29.50,NNW,329,4.0,5.0,29,0.00,,,0.00,Wunderground v.1.15,2013-04-15 17:54:00,
2013-04-15 11:59:00,53.7,21.3,29.51,North,355,8.0,8.0,28,0.00,,,0.00,Wunderground v.1.15,2013-04-15 17:59:00,
2013-04-15 12:09:00,53.3,21.0,29.51,NE,50,9.0,12.0,28,0.00,,,0.00,Wunderground v.1.15,2013-04-15 18:09:00,
2013-04-15 12:19:00,53.3,21.0,29.51,North,360,8.0,8.0,28,0.00,,,0.00,Wunderground v.1.15,2013-04-15 18:19:00,
2013-04-15 12:24:00,53.6,21.2,29.50,WNW,302,9.0,18.0,28,0.00,,,0.00,Wunderground v.1.15,2013-04-15 18:24:00,
2013-04-15 12:29:00,53.6,22.1,29.50,NW,306,9.0,9.0,29,0.00,,,0.00,Wunderground v.1.15,2013-04-15 18:29:00,
2013-04-15 12:34:00,53.7,23.0,29.50,NNE,22,10.0,10.0,30,0.00,,,0.00,Wunderground v.1.15,2013-04-15 18:34:00,
2013-04-15 12:39:00,53.7,23.0,29.50,NW,321,8.0,9.0,30,0.00,,,0.00,Wunderground v.1.15,2013-04-15 18:39:00,
2013-04-15 12:44:00,54.5,22.9,29.50,North,355,8.0,9.0,29,0.00,,,0.00,Wunderground v.1.15,2013-04-15 18:44:00,
2013-04-15 12:49:00,54.4,21.9,29.50,NNW,327,8.0,8.0,28,0.00,,,0.00,Wunderground v.1.15,2013-04-15 18:49:00,
2013-04-15 12:54:00,54.9,21.5,29.49,WNW,288,7.0,8.0,27,0.00,,,0.00,Wunderground v.1.15,2013-04-15 18:54:00,
2013-04-15 12:59:00,54.6,21.2,29.49,West,269,8.0,8.0,27,0.00,,,0.00,Wunderground v.1.15,2013-04-15 18:59:00,
2013-04-15 13:09:00,55.3,21.8,29.50,NNW,348,8.0,8.0,27,0.00,,,0.00,Wunderground v.1.15,2013-04-15 19:09:00,
2013-04-15 13:19:00,55.2,20.9,29.49,West,267,9.0,9.0,26,0.00,,,0.00,Wunderground v.1.15,2013-04-15 19:19:00,
2013-04-15 13:24:00,55.3,20.0,29.49,NE,38,8.0,9.0,25,0.00,,,0.00,Wunderground v.1.15,2013-04-15 19:24:00,
2013-04-15 13:29:00,55.5,21.1,29.47,NW,305,6.0,7.0,26,0.00,,,0.00,Wunderground v.1.15,2013-04-15 19:29:00,
2013-04-15 13:44:00,55.6,20.3,29.47,West,261,6.0,10.0,25,0.00,,,0.00,Wunderground v.1.15,2013-04-15 19:44:00,
2013-04-15 13:49:00,55.3,19.1,29.47,SSE,158,6.0,6.0,24,0.00,,,0.00,Wunderground v.1.15,2013-04-15 19:49:00,
2013-04-15 13:59:00,55.8,20.5,29.47,NW,310,7.0,7.0,25,0.00,,,0.00,Wunderground v.1.15,2013-04-15 19:59:00,
2013-04-15 14:04:00,56.5,20.1,29.47,NNW,327,9.0,9.0,24,0.00,,,0.00,Wunderground v.1.15,2013-04-15 20:04:00,
2013-04-15 14:09:00,57.0,21.5,29.47,NNW,329,7.0,8.0,25,0.00,,,0.00,Wunderground v.1.15,2013-04-15 20:09:00,
2013-04-15 14:14:00,57.1,18.6,29.47,NNW,333,7.0,9.0,22,0.00,,,0.00,Wunderground v.1.15,2013-04-15 20:14:00,
2013-04-15 14:19:00,57.0,20.5,29.47,NW,314,9.0,9.0,24,0.00,,,0.00,Wunderground v.1.15,2013-04-15 20:19:00,
2013-04-15 14:29:00,57.6,19.0,29.49,NNW,346,4.0,4.0,22,0.00,,,0.00,Wunderground v.1.15,2013-04-15 20:29:00,
2013-04-15 14:34:00,56.9,18.4,29.48,NNE,18,4.0,6.0,22,0.00,,,0.00,Wunderground v.1.15,2013-04-15 20:34:00,
2013-04-15 14:39:00,56.8,21.3,29.48,NNW,329,6.0,6.0,25,0.00,,,0.00,Wunderground v.1.15,2013-04-15 20:39:00,
2013-04-15 14:44:00,57.3,18.7,29.48,WNW,288,5.0,6.0,22,0.00,,,0.00,Wunderground v.1.15,2013-04-15 20:44:00,
2013-04-15 14:49:00,57.2,19.7,29.48,NE,51,4.0,4.0,23,0.00,,,0.00,Wunderground v.1.15,2013-04-15 20:49:00,
2013-04-15 14:54:00,57.7,19.1,29.49,NW,325,4.0,6.0,22,0.00,,,0.00,Wunderground v.1.15,2013-04-15 20:54:00,
2013-04-15 14:59:00,58.0,19.3,29.48,NW,325,6.0,6.0,22,0.00,,,0.00,Wunderground v.1.15,2013-04-15 20:59:00,
2013-04-15 15:09:00,57.0,18.5,29.47,North,351,6.0,6.0,22,0.00,,,0.00,Wunderground v.1.15,2013-04-15 21:09:00,
2013-04-15 15:14:00,57.4,17.7,29.48,NW,319,10.0,10.0,21,0.00,,,0.00,Wunderground v.1.15,2013-04-15 21:14:00,
2013-04-15 15:19:00,58.0,17.1,29.48,NNW,334,8.0,8.0,20,0.00,,,0.00,Wunderground v.1.15,2013-04-15 21:19:00,
2013-04-15 15:24:00,58.1,16.0,29.48,NNW,336,7.0,8.0,19,0.00,,,0.00,Wunderground v.1.15,2013-04-15 21:24:00,
2013-04-15 15:29:00,58.4,17.4,29.49,NNW,338,8.0,15.0,20,0.00,,,0.00,Wunderground v.1.15,2013-04-15 21:29:00,
2013-04-15 15:39:00,59.8,17.4,29.48,NNW,340,7.0,7.0,19,0.00,,,0.00,Wunderground v.1.15,2013-04-15 21:39:00,
2013-04-15 15:44:00,59.0,19.1,29.47,WNW,301,5.0,7.0,21,0.00,,,0.00,Wunderground v.1.15,2013-04-15 21:44:00,
2013-04-15 15:49:00,59.1,18.0,29.46,NNW,330,6.0,10.0,20,0.00,,,0.00,Wunderground v.1.15,2013-04-15 21:49:00,
2013-04-15 15:54:00,59.1,16.8,29.47,NW,304,9.0,10.0,19,0.00,,,0.00,Wunderground v.1.15,2013-04-15 21:54:00,
2013-04-15 15:59:00,59.4,17.1,29.46,NW,318,9.0,16.0,19,0.00,,,0.00,Wunderground v.1.15,2013-04-15 21:59:00,
2013-04-15 16:09:00,59.3,17.0,29.47,WNW,300,9.0,9.0,19,0.00,,,0.00,Wunderground v.1.15,2013-04-15 22:09:00,
2013-04-15 16:14:00,59.9,17.5,29.48,North,360,8.0,9.0,19,0.00,,,0.00,Wunderground v.1.15,2013-04-15 22:14:00,
2013-04-15 16:24:00,58.9,17.8,29.45,WNW,292,7.0,9.0,20,0.00,,,0.00,Wunderground v.1.15,2013-04-15 22:24:00,
2013-04-15 16:29:00,59.5,17.1,29.46,NW,324,6.0,8.0,19,0.00,,,0.00,Wunderground v.1.15,2013-04-15 22:29:00,
2013-04-15 16:39:00,59.6,17.2,29.46,WNW,297,5.0,5.0,19,0.00,,,0.00,Wunderground v.1.15,2013-04-15 22:39:00,
2013-04-15 16:44:00,59.4,17.1,29.46,NW,312,4.0,10.0,19,0.00,,,0.00,Wunderground v.1.15,2013-04-15 22:44:00,
2013-04-15 16:49:00,59.6,17.2,29.45,NW,319,4.0,14.0,19,0.00,,,0.00,Wunderground v.1.15,2013-04-15 22:49:00,
2013-04-15 16:54:00,59.5,17.1,29.44,ENE,62,5.0,14.0,19,0.00,,,0.00,Wunderground v.1.15,2013-04-15 22:54:00,
2013-04-15 16:59:00,59.7,17.3,29.45,NW,321,6.0,6.0,19,0.00,,,0.00,Wunderground v.1.15,2013-04-15 22:59:00,
2013-04-15 17:09:00,60.0,16.3,29.44,NE,52,6.0,6.0,18,0.00,,,0.00,Wunderground v.1.15,2013-04-15 23:09:00,
2013-04-15 17:14:00,60.0,15.0,29.44,NW,324,6.0,7.0,17,0.00,,,0.00,Wunderground v.1.15,2013-04-15 23:14:00,
2013-04-15 17:19:00,60.2,15.2,29.43,NNW,336,7.0,7.0,17,0.00,,,0.00,Wunderground v.1.15,2013-04-15 23:19:00,
2013-04-15 17:24:00,60.5,16.7,29.44,NNE,28,8.0,8.0,18,0.00,,,0.00,Wunderground v.1.15,2013-04-15 23:24:00,
2013-04-15 17:34:00,60.8,17.0,29.43,NW,309,6.0,11.0,18,0.00,,,0.00,Wunderground v.1.15,2013-04-15 23:34:00,
2013-04-15 17:44:00,61.0,17.1,29.43,NNW,336,3.0,5.0,18,0.00,,,0.00,Wunderground v.1.15,2013-04-15 23:44:00,
2013-04-15 17:49:00,61.2,14.6,29.43,NNE,13,6.0,11.0,16,0.00,,,0.00,Wunderground v.1.15,2013-04-15 23:49:00,
2013-04-15 17:54:00,61.4,14.7,29.44,NW,326,11.0,14.0,16,0.00,,,0.00,Wunderground v.1.15,2013-04-15 23:54:00,
2013-04-15 17:59:00,61.4,14.7,29.43,NNW,348,8.0,8.0,16,0.00,,,0.00,Wunderground v.1.15,2013-04-15 23:59:00,
2013-04-15 18:09:00,61.3,13.2,29.44,NE,51,6.0,6.0,15,0.00,,,0.00,Wunderground v.1.15,2013-04-16 00:09:00,
2013-04-15 18:14:00,61.4,14.7,29.45,WNW,302,5.0,6.0,16,0.00,,,0.00,Wunderground v.1.15,2013-04-16 00:14:00,
2013-04-15 18:19:00,61.3,14.7,29.45,NNW,336,6.0,6.0,16,0.00,,,0.00,Wunderground v.1.15,2013-04-16 00:19:00,
2013-04-15 18:24:00,61.1,14.5,29.46,NNW,339,8.0,9.0,16,0.00,,,0.00,Wunderground v.1.15,2013-04-16 00:24:00,
2013-04-15 18:34:00,60.5,15.4,29.47,NNW,334,8.0,12.0,17,0.00,,,0.00,Wunderground v.1.15,2013-04-16 00:34:00,
2013-04-15 18:39:00,60.2,15.2,29.47,NNW,327,7.0,13.0,17,0.00,,,0.00,Wunderground v.1.15,2013-04-16 00:39:00,
2013-04-15 18:44:00,60.0,16.3,29.47,NW,323,7.0,13.0,18,0.00,,,0.00,Wunderground v.1.15,2013-04-16 00:44:00,
2013-04-15 18:49:00,59.7,14.8,29.47,NW,323,8.0,8.0,17,0.00,,,0.00,Wunderground v.1.15,2013-04-16 00:49:00,
2013-04-15 18:54:00,59.4,14.5,29.47,NW,323,8.0,14.0,17,0.00,,,0.00,Wunderground v.1.15,2013-04-16 00:54:00,
2013-04-15 18:59:00,59.1,14.3,29.48,NNW,336,8.0,11.0,17,0.00,,,0.00,Wunderground v.1.15,2013-04-16 00:59:00,
2013-04-15 19:09:00,58.6,16.4,29.48,WNW,298,8.0,8.0,19,0.00,,,0.00,Wunderground v.1.15,2013-04-16 01:09:00,
2013-04-15 19:14:00,58.2,16.1,29.49,NE,44,6.0,8.0,19,0.00,,,0.00,Wunderground v.1.15,2013-04-16 01:14:00,
2013-04-15 19:24:00,56.9,16.2,29.49,WNW,297,3.0,4.0,20,0.00,,,0.00,Wunderground v.1.15,2013-04-16 01:24:00,
2013-04-15 19:29:00,56.8,17.2,29.50,NNW,335,4.0,11.0,21,0.00,,,0.00,Wunderground v.1.15,2013-04-16 01:29:00,
2013-04-15 19:39:00,56.3,16.8,29.50,NW,319,4.0,5.0,21,0.00,,,0.00,Wunderground v.1.15,2013-04-16 01:39:00,
2013-04-15 19:44:00,55.6,17.3,29.50,NW,323,3.0,5.0,22,0.00,,,0.00,Wunderground v.1.15,2013-04-16 01:44:00,
2013-04-15 19:49:00,54.0,19.8,29.50,NNW,348,2.0,2.0,26,0.00,,,0.00,Wunderground v.1.15,2013-04-16 01:49:00,
2013-04-15 19:54:00,53.9,19.8,29.51,WSW,238,1.0,2.0,26,0.00,,,0.00,Wunderground v.1.15,2013-04-16 01:54:00,
2013-04-15 19:59:00,52.3,17.5,29.51,WNW,286,1.0,1.0,25,0.00,,,0.00,Wunderground v.1.15,2013-04-16 01:59:00,
2013-04-15 20:09:00,50.2,21.4,29.52,SW,224,1.0,1.0,32,0.00,,,0.00,Wunderground v.1.15,2013-04-16 02:09:00,
2013-04-15 20:14:00,49.4,20.0,29.52,SW,223,1.0,1.0,31,0.00,,,0.00,Wunderground v.1.15,2013-04-16 02:14:00,
2013-04-15 20:24:00,47.9,23.5,29.52,SSW,194,0.0,0.0,38,0.00,,,0.00,Wunderground v.1.15,2013-04-16 02:24:00,
2013-04-15 20:29:00,47.6,21.9,29.53,East,94,0.0,2.0,36,0.00,,,0.00,Wunderground v.1.15,2013-04-16 02:29:00,
2013-04-15 20:34:00,47.3,22.9,29.53,SSE,159,0.0,2.0,38,0.00,,,0.00,Wunderground v.1.15,2013-04-16 02:34:00,
2013-04-15 20:39:00,46.7,21.8,29.53,SSE,159,0.0,0.0,37,0.00,,,0.00,Wunderground v.1.15,2013-04-16 02:39:00,
2013-04-15 20:44:00,46.3,23.3,29.53,SSE,159,0.0,0.0,40,0.00,,,0.00,Wunderground v.1.15,2013-04-16 02:44:00,
2013-04-15 20:54:00,45.8,24.0,29.53,SSE,159,0.0,1.0,42,0.00,,,0.00,Wunderground v.1.15,2013-04-16 02:54:00,
2013-04-15 20:59:00,45.0,23.8,29.54,SSE,159,0.0,0.0,43,0.00,,,0.00,Wunderground v.1.15,2013-04-16 02:59:00,
2013-04-15 21:09:00,44.3,24.3,29.54,SSE,162,1.0,1.0,45,0.00,,,0.00,Wunderground v.1.15,2013-04-16 03:09:00,
2013-04-15 21:14:00,43.8,23.3,29.55,SSE,163,0.0,1.0,44,0.00,,,0.00,Wunderground v.1.15,2013-04-16 03:14:00,
2013-04-15 21:19:00,43.4,22.4,29.55,ESE,117,0.0,0.0,43,0.00,,,0.00,Wunderground v.1.15,2013-04-16 03:19:00,
2013-04-15 21:24:00,43.6,23.1,29.55,ESE,109,1.0,1.0,44,0.00,,,0.00,Wunderground v.1.15,2013-04-16 03:24:00,
2013-04-15 21:29:00,43.4,23.4,29.55,SW,228,0.0,0.0,45,0.00,,,0.00,Wunderground v.1.15,2013-04-16 03:29:00,
2013-04-15 21:39:00,43.1,23.2,29.56,SSW,209,0.0,0.0,45,0.00,,,0.00,Wunderground v.1.15,2013-04-16 03:39:00,
2013-04-15 21:49:00,42.4,23.1,29.56,South,190,0.0,0.0,46,0.00,,,0.00,Wunderground v.1.15,2013-04-16 03:49:00,
2013-04-15 21:54:00,42.4,23.6,29.56,South,190,0.0,0.0,47,0.00,,,0.00,Wunderground v.1.15,2013-04-16 03:54:00,
2013-04-15 21:59:00,42.4,23.1,29.56,South,177,0.0,0.0,46,0.00,,,0.00,Wunderground v.1.15,2013-04-16 03:59:00,
2013-04-15 22:04:00,42.6,23.8,29.57,South,187,0.0,0.0,47,0.00,,,0.00,Wunderground v.1.15,2013-04-16 04:04:00,
2013-04-15 22:09:00,43.9,22.3,29.56,West,267,0.0,1.0,42,0.00,,,0.00,Wunderground v.1.15,2013-04-16 04:09:00,
2013-04-15 22:14:00,44.1,23.0,29.57,WSW,246,0.0,1.0,43,0.00,,,0.00,Wunderground v.1.15,2013-04-16 04:14:00,
2013-04-15 22:19:00,44.0,22.4,29.56,NW,321,0.0,0.0,42,0.00,,,0.00,Wunderground v.1.15,2013-04-16 04:19:00,
2013-04-15 22:24:00,44.9,20.2,29.57,West,259,1.0,1.0,37,0.00,,,0.00,Wunderground v.1.15,2013-04-16 04:24:00,
2013-04-15 22:29:00,46.0,18.5,29.56,NNW,335,2.0,2.0,33,0.00,,,0.00,Wunderground v.1.15,2013-04-16 04:29:00,
2013-04-15 22:39:00,49.9,18.9,29.56,West,265,4.0,4.0,29,0.00,,,0.00,Wunderground v.1.15,2013-04-16 04:39:00,
2013-04-15 22:44:00,49.5,18.5,29.56,NNW,344,2.0,4.0,29,0.00,,,0.00,Wunderground v.1.15,2013-04-16 04:44:00,
2013-04-15 22:49:00,49.9,16.3,29.56,NNW,327,2.0,3.0,26,0.00,,,0.00,Wunderground v.1.15,2013-04-16 04:49:00,
2013-04-15 22:54:00,50.5,16.8,29.56,NNW,332,3.0,4.0,26,0.00,,,0.00,Wunderground v.1.15,2013-04-16 04:54:00,
2013-04-15 22:59:00,50.5,16.8,29.55,WNW,302,3.0,3.0,26,0.00,,,0.00,Wunderground v.1.15,2013-04-16 04:59:00,
2013-04-15 23:09:00,49.6,16.1,29.55,NW,309,3.0,3.0,26,0.00,,,0.00,Wunderground v.1.15,2013-04-16 05:09:00,
2013-04-15 23:19:00,50.3,14.8,29.56,NNW,339,3.0,12.0,24,0.00,,,0.00,Wunderground v.1.15,2013-04-16 05:19:00,
2013-04-15 23:24:00,50.6,15.1,29.56,NW,306,4.0,12.0,24,0.00,,,0.00,Wunderground v.1.15,2013-04-16 05:24:00,
2013-04-15 23:29:00,50.4,14.9,29.56,NNW,329,4.0,4.0,24,0.00,,,0.00,Wunderground v.1.15,2013-04-16 05:29:00,
2013-04-15 23:39:00,50.2,14.7,29.56,NE,35,4.0,8.0,24,0.00,,,0.00,Wunderground v.1.15,2013-04-16 05:39:00,
2013-04-15 23:49:00,49.8,14.4,29.56,North,355,4.0,4.0,24,0.00,,,0.00,Wunderground v.1.15,2013-04-16 05:49:00,
2013-04-15 23:54:00,49.7,14.3,29.56,NNW,339,3.0,6.0,24,0.00,,,0.00,Wunderground v.1.15,2013-04-16 05:54:00,
2013-04-15 23:59:00,49.7,14.3,29.56,North,360,4.0,4.0,24,0.00,,,0.00,Wunderground v.1.15,2013-04-16 05:59:00,